createdAt,value
2022-09-01T00:00:13.384Z,33.67
2022-09-01T00:02:40.189Z,35.53
2022-09-01T00:05:07.817Z,31.70
2022-09-01T00:07:35.466Z,33.58
2022-09-01T00:10:05.971Z,31.35
2022-09-01T00:12:32.594Z,30.00
2022-09-01T00:14:59.385Z,32.72
2022-09-01T00:17:26.579Z,33.42
2022-09-01T00:19:53.727Z,31.63
2022-09-01T00:22:20.538Z,35.38
2022-09-01T00:24:47.205Z,30.65
2022-09-01T00:27:13.899Z,31.05
2022-09-01T00:29:43.420Z,34.63
2022-09-01T00:32:11.673Z,35.03
2022-09-01T00:34:38.763Z,33.05
2022-09-01T00:37:08.488Z,41.78
2022-09-01T00:39:35.225Z,41.67
2022-09-01T00:42:02.257Z,42.65
2022-09-01T00:44:31.856Z,38.95
2022-09-01T00:46:59.824Z,40.42
2022-09-01T00:49:31.406Z,39.28
2022-09-01T00:52:06.845Z,42.83
2022-09-01T00:54:37.607Z,38.97
2022-09-01T00:57:06.048Z,33.60
2022-09-01T00:59:33.060Z,34.53
2022-09-01T01:01:59.815Z,39.25
2022-09-01T01:04:26.490Z,45.65
2022-09-01T01:07:03.126Z,39.17
2022-09-01T01:09:36.148Z,42.90
2022-09-01T01:12:05.392Z,39.90
2022-09-01T01:14:36.994Z,36.95
2022-09-01T01:17:04.148Z,27.85
2022-09-01T01:20:01.135Z,30.00
2022-09-01T01:23:02.733Z,24.25
2022-09-01T01:25:34.503Z,26.70
2022-09-01T01:28:18.732Z,22.40
2022-09-01T01:30:52.517Z,21.63
2022-09-01T01:33:25.875Z,20.63
2022-09-01T01:35:53.705Z,22.35
2022-09-01T01:38:23.169Z,23.83
2022-09-01T01:40:51.899Z,22.90
2022-09-01T01:43:21.925Z,22.27
2022-09-01T01:45:52.478Z,23.65
2022-09-01T01:48:23.033Z,18.75
2022-09-01T01:50:53.210Z,20.13
2022-09-01T01:53:19.988Z,18.60
2022-09-01T01:55:50.908Z,26.92
2022-09-01T01:58:22.719Z,19.67
2022-09-01T02:00:51.388Z,16.85
2022-09-01T02:03:21.897Z,19.33
2022-09-01T02:05:50.262Z,17.90
2022-09-01T02:08:22.756Z,20.35
2022-09-01T02:10:52.063Z,21.15
2022-09-01T02:13:20.974Z,24.13
2022-09-01T02:15:53.852Z,22.05
2022-09-01T02:18:34.316Z,18.77
2022-09-01T02:21:02.161Z,24.10
2022-09-01T02:23:30.100Z,23.85
2022-09-01T02:26:16.231Z,24.58
2022-09-01T02:28:54.221Z,20.73
2022-09-01T02:31:23.140Z,17.48
2022-09-01T02:33:49.990Z,15.85
2022-09-01T02:36:19.539Z,17.67
2022-09-01T02:38:53.341Z,17.80
2022-09-01T02:41:23.104Z,18.85
2022-09-01T02:43:50.455Z,19.42
2022-09-01T02:46:17.404Z,18.67
2022-09-01T02:48:46.231Z,13.63
2022-09-01T02:51:18.615Z,14.10
2022-09-01T02:53:49.853Z,14.82
2022-09-01T02:56:18.245Z,15.35
2022-09-01T02:58:46.811Z,12.93
2022-09-01T03:01:20.521Z,16.50
2022-09-01T03:03:51.720Z,15.68
2022-09-01T03:06:24.037Z,22.33
2022-09-01T03:08:53.137Z,16.58
2022-09-01T03:11:19.829Z,14.98
2022-09-01T03:13:47.145Z,14.23
2022-09-01T03:16:13.956Z,18.17
2022-09-01T03:18:42.954Z,18.40
2022-09-01T03:21:16.181Z,17.77
2022-09-01T03:23:45.462Z,13.98
2022-09-01T03:26:14.525Z,14.88
2022-09-01T03:28:41.327Z,17.27
2022-09-01T03:31:09.002Z,13.40
2022-09-01T03:33:37.012Z,12.77
2022-09-01T03:36:05.443Z,15.88
2022-09-01T03:38:44.331Z,12.10
2022-09-01T03:41:13.330Z,13.85
2022-09-01T03:43:45.978Z,15.68
2022-09-01T03:46:22.045Z,15.07
2022-09-01T03:48:55.299Z,17.08
2022-09-01T03:51:23.431Z,16.35
2022-09-01T03:53:54.943Z,16.75
2022-09-01T03:56:26.201Z,11.35
2022-09-01T03:58:56.277Z,15.63
2022-09-01T04:01:24.830Z,13.93
2022-09-01T04:03:52.235Z,8.77
2022-09-01T04:06:19.456Z,10.77
2022-09-01T04:08:47.292Z,15.73
2022-09-01T04:11:19.198Z,8.90
2022-09-01T04:13:47.404Z,10.75
2022-09-01T04:16:38.848Z,8.18
2022-09-01T04:19:15.991Z,9.82
2022-09-01T04:21:44.147Z,8.52
2022-09-01T04:24:12.243Z,11.00
2022-09-01T04:26:40.729Z,9.85
2022-09-01T04:29:09.205Z,9.82
2022-09-01T04:31:38.784Z,14.25
2022-09-01T04:34:13.455Z,10.32
2022-09-01T04:36:43.601Z,9.50
2022-09-01T04:39:12.409Z,7.82
2022-09-01T04:41:42.683Z,9.02
2022-09-01T04:44:09.925Z,9.93
2022-09-01T04:46:42.335Z,9.25
2022-09-01T04:49:13.252Z,10.70
2022-09-01T04:51:51.188Z,9.95
2022-09-01T04:54:20.995Z,10.95
2022-09-01T04:56:50.851Z,12.25
2022-09-01T04:59:20.671Z,13.93
2022-09-01T05:01:50.743Z,10.02
2022-09-01T05:04:23.981Z,10.20
2022-09-01T05:06:56.075Z,9.65
2022-09-01T05:09:25.299Z,10.98
2022-09-01T05:11:53.029Z,12.60
2022-09-01T05:14:22.523Z,8.38
2022-09-01T05:16:51.002Z,9.50
2022-09-01T05:19:20.893Z,8.32
2022-09-01T05:21:48.669Z,8.60
2022-09-01T05:24:21.831Z,8.95
2022-09-01T05:26:50.714Z,9.93
2022-09-01T05:29:18.036Z,7.78
2022-09-01T05:31:49.596Z,8.00
2022-09-01T05:34:26.498Z,11.13
2022-09-01T05:36:58.172Z,9.15
2022-09-01T05:39:26.177Z,19.75
2022-09-01T05:41:54.075Z,17.35
2022-09-01T05:44:24.952Z,17.77
2022-09-01T05:46:53.294Z,18.30
2022-09-01T05:49:20.058Z,23.65
2022-09-01T05:51:50.509Z,23.02
2022-09-01T05:54:23.383Z,21.35
2022-09-01T05:56:53.218Z,21.38
2022-09-01T05:59:25.553Z,31.73
2022-09-01T06:01:53.970Z,23.50
2022-09-01T06:04:21.145Z,22.67
2022-09-01T06:07:05.890Z,22.10
2022-09-01T06:09:40.682Z,24.02
2022-09-01T06:12:09.267Z,28.58
2022-09-01T06:14:36.035Z,29.17
2022-09-01T06:17:05.870Z,28.33
2022-09-01T06:19:36.860Z,31.08
2022-09-01T06:22:04.594Z,32.58
2022-09-01T06:24:31.231Z,34.03
2022-09-01T06:26:58.759Z,33.20
2022-09-01T06:29:25.474Z,29.88
2022-09-01T06:31:52.891Z,30.65
2022-09-01T06:34:19.942Z,34.10
2022-09-01T06:36:49.640Z,30.25
2022-09-01T06:39:20.130Z,25.50
2022-09-01T06:41:53.213Z,28.30
2022-09-01T06:44:24.706Z,35.83
2022-09-01T06:46:53.110Z,31.45
2022-09-01T06:49:21.631Z,27.08
2022-09-01T06:51:51.845Z,24.00
2022-09-01T06:54:21.048Z,30.83
2022-09-01T06:56:51.820Z,30.70
2022-09-01T06:59:20.917Z,27.73
2022-09-01T07:01:49.927Z,28.15
2022-09-01T07:04:21.383Z,18.00
2022-09-01T07:09:47.324Z,17.67
2022-09-01T07:12:27.602Z,17.27
2022-09-01T07:17:43.210Z,15.75
2022-09-01T07:20:27.251Z,23.00
2022-09-01T07:23:06.466Z,18.05
2022-09-01T07:26:00.936Z,17.25
2022-09-01T07:28:37.689Z,20.63
2022-09-01T07:33:55.614Z,19.05
2022-09-01T07:45:26.888Z,17.40
2022-09-01T07:47:54.794Z,14.95
2022-09-01T07:50:39.916Z,15.38
2022-09-01T07:53:15.448Z,15.88
2022-09-01T07:55:44.009Z,15.43
2022-09-01T07:58:12.315Z,16.30
2022-09-01T08:00:46.255Z,13.07
2022-09-01T08:03:18.901Z,24.63
2022-09-01T08:05:55.994Z,18.95
2022-09-01T08:08:26.403Z,19.50
2022-09-01T08:11:04.243Z,14.13
2022-09-01T08:13:34.665Z,16.95
2022-09-01T08:16:07.705Z,22.08
2022-09-01T08:18:50.789Z,15.35
2022-09-01T08:21:22.145Z,17.42
2022-09-01T08:26:18.861Z,21.75
2022-09-01T08:28:46.427Z,17.58
2022-09-01T08:31:19.740Z,14.50
2022-09-01T08:33:49.632Z,23.40
2022-09-01T08:36:21.582Z,21.65
2022-09-01T08:38:51.246Z,18.10
2022-09-01T08:41:35.494Z,19.15
2022-09-01T08:44:31.590Z,16.70
2022-09-01T08:47:05.684Z,15.70
2022-09-01T08:49:44.340Z,18.45
2022-09-01T08:52:22.829Z,16.05
2022-09-01T08:54:58.000Z,17.40
2022-09-01T08:57:32.133Z,16.65
2022-09-01T08:59:59.307Z,11.70
2022-09-01T09:02:26.138Z,13.95
2022-09-01T09:05:15.821Z,13.45
2022-09-01T09:08:06.862Z,11.55
2022-09-01T09:10:37.316Z,13.75
2022-09-01T09:13:26.674Z,11.82
2022-09-01T09:16:08.965Z,15.10
2022-09-01T09:18:54.719Z,8.27
2022-09-01T09:21:43.740Z,11.85
2022-09-01T09:24:17.024Z,14.68
2022-09-01T09:26:58.932Z,8.35
2022-09-01T09:29:29.914Z,9.82
2022-09-01T09:32:39.390Z,8.25
2022-09-01T09:34:56.163Z,7.50
2022-09-01T09:37:28.918Z,8.43
2022-09-01T09:40:04.777Z,9.05
2022-09-01T09:42:35.138Z,7.43
2022-09-01T09:45:04.375Z,8.75
2022-09-01T09:47:46.670Z,11.65
2022-09-01T09:50:32.973Z,10.90
2022-09-01T09:53:28.620Z,11.38
2022-09-01T09:56:19.579Z,9.75
2022-09-01T09:58:48.927Z,10.15
2022-09-01T10:01:26.081Z,5.80
2022-09-01T10:03:56.806Z,7.07
2022-09-01T10:06:38.310Z,5.93
2022-09-01T10:09:28.047Z,7.30
2022-09-01T10:11:57.464Z,13.13
2022-09-01T10:14:47.973Z,7.25
2022-09-01T10:17:20.677Z,21.67
2022-09-01T10:22:24.075Z,11.30
2022-09-01T10:24:50.942Z,13.00
2022-09-01T10:27:25.627Z,11.93
2022-09-01T10:30:20.543Z,6.90
2022-09-01T10:32:55.357Z,7.25
2022-09-01T10:35:38.777Z,7.38
2022-09-01T10:38:11.982Z,6.65
2022-09-01T10:40:50.038Z,12.55
2022-09-01T10:43:45.321Z,8.82
2022-09-01T10:46:38.789Z,9.68
2022-09-01T10:49:27.808Z,10.05
2022-09-01T10:52:03.169Z,7.95
2022-09-01T10:54:45.227Z,9.02
2022-09-01T10:57:55.815Z,8.18
2022-09-01T11:00:36.900Z,9.05
2022-09-01T11:03:31.783Z,6.82
2022-09-01T11:06:17.740Z,9.30
2022-09-01T11:09:00.997Z,11.35
2022-09-01T11:11:45.811Z,5.82
2022-09-01T11:14:26.962Z,12.68
2022-09-01T11:17:17.301Z,11.77
2022-09-01T11:19:46.746Z,6.15
2022-09-01T11:22:19.349Z,12.35
2022-09-01T11:25:12.036Z,11.50
2022-09-01T11:27:48.740Z,7.35
2022-09-01T11:30:21.578Z,4.18
2022-09-01T11:32:52.908Z,5.05
2022-09-01T11:37:50.135Z,5.70
2022-09-01T11:40:46.089Z,9.10
2022-09-01T11:43:16.904Z,6.65
2022-09-01T11:46:21.898Z,4.75
2022-09-01T11:48:51.805Z,5.82
2022-09-01T11:51:19.297Z,3.83
2022-09-01T11:53:46.913Z,3.67
2022-09-01T11:56:20.375Z,5.88
2022-09-01T11:58:47.772Z,7.05
2022-09-01T12:01:31.183Z,5.32
2022-09-01T12:04:19.694Z,5.50
2022-09-01T12:06:59.426Z,5.88
2022-09-01T12:09:48.050Z,5.72
2022-09-01T12:12:38.237Z,5.50
2022-09-01T12:15:25.232Z,19.65
2022-09-01T12:17:53.483Z,5.80
2022-09-01T12:20:37.915Z,8.30
2022-09-01T12:23:17.843Z,3.92
2022-09-01T12:25:45.580Z,7.90
2022-09-01T12:28:12.703Z,6.95
2022-09-01T12:30:41.542Z,9.20
2022-09-01T12:33:27.508Z,10.68
2022-09-01T12:36:21.869Z,6.85
2022-09-01T12:38:48.849Z,6.35
2022-09-01T12:41:39.094Z,5.85
2022-09-01T12:44:30.039Z,6.30
2022-09-01T12:46:59.982Z,4.80
2022-09-01T12:49:35.973Z,3.65
2022-09-01T12:52:25.953Z,5.75
2022-09-01T12:55:08.834Z,4.07
2022-09-01T12:57:51.652Z,8.10
2022-09-01T13:00:20.543Z,7.43
2022-09-01T13:03:02.949Z,4.40
2022-09-01T13:05:41.884Z,4.90
2022-09-01T13:08:12.399Z,5.60
2022-09-01T13:10:43.225Z,8.50
2022-09-01T13:13:11.324Z,5.88
2022-09-01T13:15:40.404Z,6.43
2022-09-01T13:18:07.011Z,7.15
2022-09-01T13:20:35.477Z,4.95
2022-09-01T13:23:02.475Z,5.78
2022-09-01T13:25:29.109Z,5.57
2022-09-01T13:27:55.976Z,6.55
2022-09-01T13:30:28.424Z,7.03
2022-09-01T13:35:45.421Z,3.70
2022-09-01T13:38:16.198Z,7.10
2022-09-01T13:40:43.875Z,4.20
2022-09-01T13:43:11.846Z,3.40
2022-09-01T13:45:40.815Z,4.72
2022-09-01T13:48:16.858Z,4.07
2022-09-01T13:53:39.258Z,4.03
2022-09-01T13:56:06.203Z,5.25
2022-09-01T13:58:32.838Z,6.85
2022-09-01T14:00:59.959Z,4.65
2022-09-01T14:03:26.886Z,4.55
2022-09-01T14:05:54.082Z,3.53
2022-09-01T14:08:22.889Z,3.67
2022-09-01T14:10:52.235Z,4.53
2022-09-01T14:13:35.608Z,5.03
2022-09-01T14:16:02.818Z,2.80
2022-09-01T14:18:33.009Z,4.32
2022-09-01T14:21:01.361Z,3.47
2022-09-01T14:23:30.565Z,9.25
2022-09-01T14:25:58.834Z,4.10
2022-09-01T14:28:25.696Z,3.00
2022-09-01T14:33:18.873Z,5.90
2022-09-01T14:35:47.601Z,6.55
2022-09-01T14:38:16.253Z,4.65
2022-09-01T14:40:46.631Z,7.75
2022-09-01T14:43:14.397Z,6.13
2022-09-01T14:45:47.104Z,6.03
2022-09-01T14:48:16.906Z,3.95
2022-09-01T14:50:47.304Z,4.43
2022-09-01T14:53:13.935Z,4.38
2022-09-01T14:55:44.152Z,6.38
2022-09-01T14:58:11.030Z,4.22
2022-09-01T15:00:39.242Z,6.05
2022-09-01T15:03:05.973Z,4.93
2022-09-01T15:05:39.990Z,7.13
2022-09-01T15:08:08.668Z,6.13
2022-09-01T15:10:36.693Z,5.57
2022-09-01T15:13:04.220Z,5.40
2022-09-01T15:15:31.704Z,6.63
2022-09-01T15:18:00.106Z,5.88
2022-09-01T15:20:46.599Z,5.20
2022-09-01T15:23:20.224Z,6.00
2022-09-01T15:25:48.199Z,7.65
2022-09-01T15:28:15.194Z,6.53
2022-09-01T15:30:45.587Z,11.20
2022-09-01T15:33:15.780Z,7.82
2022-09-01T15:35:44.064Z,5.95
2022-09-01T15:38:10.852Z,2.85
2022-09-01T15:40:43.528Z,4.13
2022-09-01T15:43:11.612Z,9.73
2022-09-01T15:45:39.204Z,6.32
2022-09-01T15:48:06.754Z,4.18
2022-09-01T15:50:33.414Z,4.15
2022-09-01T15:53:03.637Z,4.22
2022-09-01T15:55:40.916Z,2.83
2022-09-01T15:58:09.647Z,5.72
2022-09-01T16:00:36.360Z,9.80
2022-09-01T16:03:05.535Z,5.22
2022-09-01T16:05:35.202Z,4.28
2022-09-01T16:08:03.138Z,4.75
2022-09-01T16:10:36.552Z,6.30
2022-09-01T16:13:07.416Z,3.95
2022-09-01T16:15:35.514Z,4.85
2022-09-01T16:18:14.408Z,5.78
2022-09-01T16:20:59.514Z,4.88
2022-09-01T16:23:39.262Z,5.55
2022-09-01T16:26:05.962Z,4.82
2022-09-01T16:28:36.017Z,5.15
2022-09-01T16:31:16.329Z,5.80
2022-09-01T16:33:51.727Z,5.70
2022-09-01T16:37:00.252Z,6.65
2022-09-01T16:39:50.862Z,4.65
2022-09-01T16:42:29.362Z,4.95
2022-09-01T16:45:04.918Z,3.38
2022-09-01T16:47:46.733Z,6.00
2022-09-01T16:50:57.233Z,5.75
2022-09-01T16:53:49.317Z,8.48
2022-09-01T16:56:33.123Z,7.65
2022-09-01T16:59:06.590Z,5.65
2022-09-01T17:01:52.448Z,11.55
2022-09-01T17:04:37.451Z,8.88
2022-09-01T17:07:41.721Z,6.88
2022-09-01T17:10:33.647Z,6.95
2022-09-01T17:13:20.013Z,8.88
2022-09-01T17:15:55.517Z,6.50
2022-09-01T17:18:33.372Z,5.95
2022-09-01T17:21:32.476Z,10.05
2022-09-01T17:24:12.532Z,7.50
2022-09-01T17:26:41.360Z,13.07
2022-09-01T17:29:24.915Z,14.23
2022-09-01T17:31:59.970Z,9.60
2022-09-01T17:34:41.749Z,5.20
2022-09-01T17:37:33.067Z,10.25
2022-09-01T17:40:13.612Z,7.38
2022-09-01T17:42:45.431Z,5.97
2022-09-01T17:45:25.103Z,12.55
2022-09-01T17:47:57.809Z,12.85
2022-09-01T17:50:51.271Z,8.50
2022-09-01T17:53:27.048Z,9.55
2022-09-01T17:56:03.717Z,7.75
2022-09-01T17:58:58.468Z,8.35
2022-09-01T18:01:51.394Z,9.73
2022-09-01T18:04:24.185Z,9.32
2022-09-01T18:07:12.123Z,10.60
2022-09-01T18:09:51.282Z,10.27
2022-09-01T18:12:24.956Z,9.82
2022-09-01T18:15:11.692Z,10.45
2022-09-01T18:17:50.818Z,11.02
2022-09-01T18:20:26.067Z,12.30
2022-09-01T18:23:01.585Z,5.70
2022-09-01T18:25:36.380Z,7.80
2022-09-01T18:28:03.066Z,8.43
2022-09-01T18:30:53.398Z,11.93
2022-09-01T18:33:33.344Z,9.02
2022-09-01T18:36:24.680Z,14.05
2022-09-01T18:39:25.964Z,9.27
2022-09-01T18:42:04.626Z,11.70
2022-09-01T18:45:05.326Z,12.82
2022-09-01T18:47:54.253Z,7.80
2022-09-01T18:50:32.062Z,9.65
2022-09-01T18:53:16.351Z,9.23
2022-09-01T18:55:55.104Z,9.90
2022-09-01T18:58:37.043Z,12.18
2022-09-01T19:01:09.516Z,10.93
2022-09-01T19:03:54.143Z,9.40
2022-09-01T19:06:32.134Z,11.52
2022-09-01T19:09:38.799Z,9.48
2022-09-01T19:12:44.130Z,7.82
2022-09-01T19:15:33.757Z,7.57
2022-09-01T19:18:04.423Z,13.75
2022-09-01T19:20:45.087Z,10.05
2022-09-01T19:23:26.962Z,16.33
2022-09-01T19:26:02.288Z,9.60
2022-09-01T19:28:40.870Z,8.93
2022-09-01T19:31:22.320Z,8.98
2022-09-01T19:36:26.747Z,9.60
2022-09-01T19:38:54.362Z,7.15
2022-09-01T19:41:39.588Z,17.75
2022-09-01T19:44:21.281Z,9.10
2022-09-01T19:46:51.791Z,10.77
2022-09-01T19:49:37.384Z,15.63
2022-09-01T19:52:10.853Z,10.10
2022-09-01T19:55:03.784Z,10.52
2022-09-01T19:57:49.820Z,8.68
2022-09-01T20:00:51.458Z,11.30
2022-09-01T20:03:27.182Z,12.50
2022-09-01T20:05:53.771Z,10.15
2022-09-01T20:08:21.100Z,9.10
2022-09-01T20:11:14.952Z,11.73
2022-09-01T20:14:03.595Z,13.57
2022-09-01T20:16:53.049Z,12.38
2022-09-01T20:19:25.603Z,8.85
2022-09-01T20:21:52.219Z,14.98
2022-09-01T20:24:25.757Z,13.15
2022-09-01T20:27:38.719Z,12.90
2022-09-01T20:30:26.746Z,14.75
2022-09-01T20:32:53.378Z,12.90
2022-09-01T20:35:29.272Z,13.80
2022-09-01T20:38:02.078Z,11.65
2022-09-01T20:40:38.557Z,14.63
2022-09-01T20:43:20.313Z,8.73
2022-09-01T20:45:46.996Z,18.98
2022-09-01T20:48:16.832Z,19.85
2022-09-01T20:50:43.643Z,10.43
2022-09-01T20:53:22.240Z,11.80
2022-09-01T20:55:57.706Z,8.30
2022-09-01T20:58:57.305Z,13.38
2022-09-01T21:01:44.447Z,11.60
2022-09-01T21:04:34.612Z,16.10
2022-09-01T21:07:08.446Z,12.38
2022-09-01T21:09:40.789Z,11.30
2022-09-01T21:12:13.514Z,13.35
2022-09-01T21:15:05.842Z,26.65
2022-09-01T21:17:57.999Z,17.27
2022-09-01T21:20:43.275Z,12.10
2022-09-01T21:23:10.226Z,16.55
2022-09-01T21:25:36.831Z,12.90
2022-09-01T21:28:06.686Z,11.15
2022-09-01T21:30:35.721Z,13.05
2022-09-01T21:33:03.093Z,10.70
2022-09-01T21:35:30.076Z,12.45
2022-09-01T21:37:56.968Z,13.70
2022-09-01T21:40:25.448Z,11.18
2022-09-01T21:42:59.808Z,13.18
2022-09-01T21:45:27.002Z,11.20
2022-09-01T21:47:54.451Z,9.48
2022-09-01T21:50:24.502Z,14.13
2022-09-01T21:52:51.851Z,14.57
2022-09-01T21:55:22.688Z,10.15
2022-09-01T21:57:50.177Z,16.10
2022-09-01T22:00:21.014Z,12.95
2022-09-01T22:02:48.074Z,13.73
2022-09-01T22:05:18.352Z,12.50
2022-09-01T22:07:46.854Z,7.28
2022-09-01T22:10:16.939Z,12.70
2022-09-01T22:12:46.156Z,16.40
2022-09-01T22:15:15.296Z,13.88
2022-09-01T22:17:42.024Z,11.13
2022-09-01T22:20:10.997Z,11.48
2022-09-01T22:22:37.671Z,9.35
2022-09-01T22:25:07.528Z,16.38
2022-09-01T22:27:34.426Z,10.02
2022-09-01T22:30:02.222Z,13.70
2022-09-01T22:32:32.974Z,11.88
2022-09-01T22:35:01.558Z,5.70
2022-09-01T22:37:28.161Z,11.90
2022-09-01T22:39:54.856Z,7.32
2022-09-01T22:42:21.577Z,9.75
2022-09-01T22:44:48.338Z,8.68
2022-09-01T22:47:14.960Z,13.38
2022-09-01T22:49:41.625Z,10.05
2022-09-01T22:52:08.316Z,9.10
2022-09-01T22:54:34.968Z,18.27
2022-09-01T22:57:02.426Z,11.23
2022-09-01T22:59:29.043Z,9.32
2022-09-01T23:01:55.721Z,9.93
2022-09-01T23:04:22.577Z,8.27
2022-09-01T23:06:51.973Z,9.27
2022-09-01T23:09:19.942Z,12.65
2022-09-01T23:11:47.914Z,7.28
2022-09-01T23:14:14.852Z,10.35
2022-09-01T23:16:42.040Z,10.02
2022-09-01T23:19:08.760Z,9.88
2022-09-01T23:21:37.481Z,11.48
2022-09-01T23:24:05.318Z,14.88
2022-09-01T23:26:32.634Z,8.38
2022-09-01T23:28:59.832Z,9.68
2022-09-01T23:31:30.108Z,18.58
2022-09-01T23:33:57.770Z,11.27
2022-09-01T23:36:26.904Z,12.50
2022-09-01T23:38:53.610Z,10.13
2022-09-01T23:41:32.364Z,18.20
2022-09-01T23:44:01.583Z,9.90
2022-09-01T23:46:34.381Z,13.00
2022-09-01T23:49:02.181Z,8.57
2022-09-01T23:51:29.593Z,15.20
2022-09-01T23:53:56.363Z,9.82
2022-09-01T23:56:25.975Z,11.45
2022-09-01T23:58:52.849Z,12.65
